sensor_id;sensor_type;location;lat;lon;timestamp;pressure;altitude;pressure_sealevel;temperature;humidity
42385;BME280;28042;43.986;22.860;2022-12-18T00:00:56;102299.78;;;3.27;100.00
42385;BME280;28042;43.986;22.860;2022-12-18T00:03:21;102295.47;;;3.25;100.00
42385;BME280;28042;43.986;22.860;2022-12-18T00:05:47;102302.59;;;3.26;100.00
42385;BME280;28042;43.986;22.860;2022-12-18T00:08:13;102302.81;;;3.23;100.00
42385;BME280;28042;43.986;22.860;2022-12-18T00:10:39;102299.34;;;3.21;100.00
42385;BME280;28042;43.986;22.860;2022-12-18T00:13:04;102298.09;;;3.14;100.00
42385;BME280;28042;43.986;22.860;2022-12-18T00:15:29;102295.94;;;3.06;100.00
42385;BME280;28042;43.986;22.860;2022-12-18T00:17:54;102307.03;;;3.01;100.00
42385;BME280;28042;43.986;22.860;2022-12-18T00:20:20;102308.88;;;3.01;100.00
42385;BME280;28042;43.986;22.860;2022-12-18T00:22:50;102315.56;;;2.95;100.00
42385;BME280;28042;43.986;22.860;2022-12-18T00:25:16;102319.03;;;2.97;100.00
42385;BME280;28042;43.986;22.860;2022-12-18T00:27:41;102315.56;;;2.95;100.00
42385;BME280;28042;43.986;22.860;2022-12-18T00:30:07;102319.22;;;2.94;100.00
42385;BME280;28042;43.986;22.860;2022-12-18T00:32:32;102335.41;;;2.94;100.00
42385;BME280;28042;43.986;22.860;2022-12-18T00:34:58;102353.53;;;2.92;100.00
42385;BME280;28042;43.986;22.860;2022-12-18T00:37:23;102350.94;;;2.91;100.00
42385;BME280;28042;43.986;22.860;2022-12-18T00:39:48;102351.34;;;2.84;100.00
42385;BME280;28042;43.986;22.860;2022-12-18T00:42:14;102363.22;;;2.95;100.00
42385;BME280;28042;43.986;22.860;2022-12-18T00:44:58;102363.13;;;2.96;100.00
42385;BME280;28042;43.986;22.860;2022-12-18T00:47:23;102370.44;;;2.94;100.00
42385;BME280;28042;43.986;22.860;2022-12-18T00:49:49;102368.19;;;3.01;100.00
42385;BME280;28042;43.986;22.860;2022-12-18T00:52:14;102372.94;;;2.97;100.00
42385;BME280;28042;43.986;22.860;2022-12-18T00:54:39;102366.03;;;2.93;100.00
42385;BME280;28042;43.986;22.860;2022-12-18T00:57:04;102365.59;;;2.99;100.00
42385;BME280;28042;43.986;22.860;2022-12-18T00:59:30;102370.03;;;3.00;100.00
42385;BME280;28042;43.986;22.860;2022-12-18T01:01:55;102372.47;;;3.03;100.00
42385;BME280;28042;43.986;22.860;2022-12-18T01:04:20;102376.94;;;3.04;100.00
42385;BME280;28042;43.986;22.860;2022-12-18T01:06:46;102384.78;;;3.07;100.00
42385;BME280;28042;43.986;22.860;2022-12-18T01:09:11;102380.91;;;3.11;100.00
42385;BME280;28042;43.986;22.860;2022-12-18T01:11:36;102380.03;;;3.11;100.00
42385;BME280;28042;43.986;22.860;2022-12-18T01:14:02;102384.16;;;3.17;100.00
42385;BME280;28042;43.986;22.860;2022-12-18T01:16:27;102372.28;;;3.19;100.00
42385;BME280;28042;43.986;22.860;2022-12-18T01:18:53;102369.56;;;3.19;100.00
42385;BME280;28042;43.986;22.860;2022-12-18T01:21:19;102364.50;;;3.27;100.00
42385;BME280;28042;43.986;22.860;2022-12-18T01:23:45;102368.06;;;3.28;100.00
42385;BME280;28042;43.986;22.860;2022-12-18T01:26:12;102380.47;;;3.30;100.00
42385;BME280;28042;43.986;22.860;2022-12-18T01:28:37;102374.00;;;3.33;100.00
42385;BME280;28042;43.986;22.860;2022-12-18T01:31:16;102378.53;;;3.32;100.00
42385;BME280;28042;43.986;22.860;2022-12-18T01:33:42;102381.84;;;3.36;100.00
42385;BME280;28042;43.986;22.860;2022-12-18T01:36:08;102376.03;;;3.42;100.00
42385;BME280;28042;43.986;22.860;2022-12-18T01:38:39;102375.69;;;3.47;100.00
42385;BME280;28042;43.986;22.860;2022-12-18T01:41:04;102373.78;;;3.49;100.00
42385;BME280;28042;43.986;22.860;2022-12-18T01:43:42;102377.72;;;3.56;100.00
42385;BME280;28042;43.986;22.860;2022-12-18T01:46:08;102378.94;;;3.52;100.00
42385;BME280;28042;43.986;22.860;2022-12-18T01:48:34;102391.97;;;3.58;100.00
42385;BME280;28042;43.986;22.860;2022-12-18T01:50:59;102391.63;;;3.62;100.00
42385;BME280;28042;43.986;22.860;2022-12-18T01:53:24;102403.16;;;3.64;100.00
42385;BME280;28042;43.986;22.860;2022-12-18T01:55:51;102403.41;;;3.61;100.00
42385;BME280;28042;43.986;22.860;2022-12-18T01:58:18;102400.94;;;3.58;100.00
42385;BME280;28042;43.986;22.860;2022-12-18T02:00:44;102386.72;;;3.56;100.00
42385;BME280;28042;43.986;22.860;2022-12-18T02:03:10;102400.50;;;3.52;100.00
42385;BME280;28042;43.986;22.860;2022-12-18T02:08:18;102417.78;;;3.49;100.00
42385;BME280;28042;43.986;22.860;2022-12-18T02:18:47;102433.75;;;3.52;100.00
42385;BME280;28042;43.986;22.860;2022-12-18T02:26:59;102429.22;;;3.53;100.00
42385;BME280;28042;43.986;22.860;2022-12-18T02:29:27;102423.06;;;3.51;100.00
42385;BME280;28042;43.986;22.860;2022-12-18T02:31:56;102434.19;;;3.46;100.00
42385;BME280;28042;43.986;22.860;2022-12-18T02:34:23;102434.72;;;3.38;100.00
42385;BME280;28042;43.986;22.860;2022-12-18T02:36:50;102435.28;;;3.31;100.00
42385;BME280;28042;43.986;22.860;2022-12-18T02:39:16;102440.88;;;3.28;100.00
42385;BME280;28042;43.986;22.860;2022-12-18T02:41:42;102436.69;;;3.24;100.00
42385;BME280;28042;43.986;22.860;2022-12-18T02:44:12;102437.09;;;3.18;100.00
42385;BME280;28042;43.986;22.860;2022-12-18T02:46:40;102445.41;;;3.15;100.00
42385;BME280;28042;43.986;22.860;2022-12-18T02:54:27;102464.78;;;2.94;100.00
42385;BME280;28042;43.986;22.860;2022-12-18T02:56:55;102463.91;;;2.94;100.00
42385;BME280;28042;43.986;22.860;2022-12-18T02:59:30;102454.78;;;2.96;100.00
42385;BME280;28042;43.986;22.860;2022-12-18T03:07:01;102471.00;;;2.82;100.00
42385;BME280;28042;43.986;22.860;2022-12-18T03:09:29;102486.78;;;2.88;100.00
42385;BME280;28042;43.986;22.860;2022-12-18T03:11:58;102473.81;;;2.80;100.00
42385;BME280;28042;43.986;22.860;2022-12-18T03:14:45;102488.91;;;2.83;100.00
42385;BME280;28042;43.986;22.860;2022-12-18T03:17:14;102487.19;;;2.82;100.00
42385;BME280;28042;43.986;22.860;2022-12-18T03:19:42;102492.56;;;2.82;100.00
42385;BME280;28042;43.986;22.860;2022-12-18T03:22:09;102498.19;;;2.79;100.00
42385;BME280;28042;43.986;22.860;2022-12-18T03:24:35;102502.59;;;2.80;100.00
42385;BME280;28042;43.986;22.860;2022-12-18T03:27:05;102496.63;;;2.75;100.00
42385;BME280;28042;43.986;22.860;2022-12-18T03:32:08;102505.91;;;2.71;100.00
42385;BME280;28042;43.986;22.860;2022-12-18T03:34:35;102500.69;;;2.68;100.00
42385;BME280;28042;43.986;22.860;2022-12-18T03:37:02;102504.19;;;2.70;100.00
42385;BME280;28042;43.986;22.860;2022-12-18T03:39:28;102510.19;;;2.61;100.00
42385;BME280;28042;43.986;22.860;2022-12-18T03:46:55;102519.41;;;2.57;100.00
42385;BME280;28042;43.986;22.860;2022-12-18T03:52:11;102519.53;;;2.55;100.00
42385;BME280;28042;43.986;22.860;2022-12-18T03:54:34;102526.00;;;2.52;100.00
42385;BME280;28042;43.986;22.860;2022-12-18T03:57:05;102536.28;;;2.46;100.00
42385;BME280;28042;43.986;22.860;2022-12-18T03:59:32;102540.72;;;2.47;100.00
42385;BME280;28042;43.986;22.860;2022-12-18T04:01:58;102542.66;;;2.45;100.00
42385;BME280;28042;43.986;22.860;2022-12-18T04:04:25;102538.78;;;2.49;100.00
42385;BME280;28042;43.986;22.860;2022-12-18T04:06:52;102545.03;;;2.49;100.00
42385;BME280;28042;43.986;22.860;2022-12-18T04:09:19;102557.94;;;2.44;100.00
42385;BME280;28042;43.986;22.860;2022-12-18T04:11:45;102548.91;;;2.45;100.00
42385;BME280;28042;43.986;22.860;2022-12-18T04:14:11;102546.19;;;2.45;100.00
42385;BME280;28042;43.986;22.860;2022-12-18T04:16:36;102545.63;;;2.40;100.00
42385;BME280;28042;43.986;22.860;2022-12-18T04:19:01;102536.78;;;2.38;100.00
42385;BME280;28042;43.986;22.860;2022-12-18T04:21:27;102538.91;;;2.33;100.00
42385;BME280;28042;43.986;22.860;2022-12-18T04:23:52;102540.84;;;2.31;100.00
42385;BME280;28042;43.986;22.860;2022-12-18T04:26:17;102538.25;;;2.30;100.00
42385;BME280;28042;43.986;22.860;2022-12-18T04:28:43;102547.94;;;2.32;100.00
42385;BME280;28042;43.986;22.860;2022-12-18T04:31:08;102546.00;;;2.34;100.00
42385;BME280;28042;43.986;22.860;2022-12-18T04:33:33;102556.59;;;2.37;100.00
42385;BME280;28042;43.986;22.860;2022-12-18T04:35:59;102560.38;;;2.35;100.00
42385;BME280;28042;43.986;22.860;2022-12-18T04:38:24;102548.16;;;2.29;100.00
42385;BME280;28042;43.986;22.860;2022-12-18T04:40:49;102567.75;;;2.31;100.00
42385;BME280;28042;43.986;22.860;2022-12-18T04:43:14;102552.66;;;2.29;100.00
42385;BME280;28042;43.986;22.860;2022-12-18T04:45:40;102556.97;;;2.31;100.00
42385;BME280;28042;43.986;22.860;2022-12-18T04:48:05;102563.13;;;2.33;100.00
42385;BME280;28042;43.986;22.860;2022-12-18T04:50:31;102572.50;;;2.28;100.00
42385;BME280;28042;43.986;22.860;2022-12-18T04:52:56;102566.63;;;2.21;100.00
42385;BME280;28042;43.986;22.860;2022-12-18T04:55:22;102580.84;;;2.23;100.00
42385;BME280;28042;43.986;22.860;2022-12-18T04:57:47;102575.66;;;2.20;100.00
42385;BME280;28042;43.986;22.860;2022-12-18T05:00:12;102595.28;;;2.22;100.00
42385;BME280;28042;43.986;22.860;2022-12-18T05:02:38;102606.03;;;2.22;100.00
42385;BME280;28042;43.986;22.860;2022-12-18T05:05:03;102606.34;;;2.17;100.00
42385;BME280;28042;43.986;22.860;2022-12-18T05:07:29;102617.66;;;2.22;100.00
42385;BME280;28042;43.986;22.860;2022-12-18T05:09:54;102620.09;;;2.27;100.00
42385;BME280;28042;43.986;22.860;2022-12-18T05:12:19;102614.69;;;2.27;100.00
42385;BME280;28042;43.986;22.860;2022-12-18T05:14:45;102613.63;;;2.30;100.00
42385;BME280;28042;43.986;22.860;2022-12-18T05:17:10;102622.47;;;2.32;100.00
42385;BME280;28042;43.986;22.860;2022-12-18T05:19:35;102622.19;;;2.36;100.00
42385;BME280;28042;43.986;22.860;2022-12-18T05:22:01;102622.00;;;2.39;100.00
42385;BME280;28042;43.986;22.860;2022-12-18T05:24:26;102623.88;;;2.51;100.00
42385;BME280;28042;43.986;22.860;2022-12-18T05:26:51;102626.59;;;2.51;100.00
42385;BME280;28042;43.986;22.860;2022-12-18T05:29:17;102637.47;;;2.50;100.00
42385;BME280;28042;43.986;22.860;2022-12-18T05:31:42;102641.59;;;2.55;100.00
42385;BME280;28042;43.986;22.860;2022-12-18T05:34:07;102637.72;;;2.60;100.00
42385;BME280;28042;43.986;22.860;2022-12-18T05:36:32;102643.81;;;2.63;100.00
42385;BME280;28042;43.986;22.860;2022-12-18T05:38:58;102641.00;;;2.65;100.00
42385;BME280;28042;43.986;22.860;2022-12-18T05:41:25;102643.72;;;2.65;100.00
42385;BME280;28042;43.986;22.860;2022-12-18T05:43:50;102648.88;;;2.68;100.00
42385;BME280;28042;43.986;22.860;2022-12-18T05:46:16;102651.78;;;2.65;100.00
42385;BME280;28042;43.986;22.860;2022-12-18T05:48:43;102644.47;;;2.67;100.00
42385;BME280;28042;43.986;22.860;2022-12-18T05:51:09;102640.81;;;2.68;100.00
42385;BME280;28042;43.986;22.860;2022-12-18T05:53:36;102653.31;;;2.69;100.00
42385;BME280;28042;43.986;22.860;2022-12-18T05:56:02;102650.63;;;2.69;100.00
42385;BME280;28042;43.986;22.860;2022-12-18T05:58:27;102642.16;;;2.75;100.00
42385;BME280;28042;43.986;22.860;2022-12-18T06:00:53;102643.00;;;2.75;100.00
42385;BME280;28042;43.986;22.860;2022-12-18T06:03:18;102649.16;;;2.77;100.00
42385;BME280;28042;43.986;22.860;2022-12-18T06:05:44;102657.25;;;2.77;100.00
42385;BME280;28042;43.986;22.860;2022-12-18T06:08:10;102646.47;;;2.77;100.00
42385;BME280;28042;43.986;22.860;2022-12-18T06:10:35;102636.38;;;2.81;100.00
42385;BME280;28042;43.986;22.860;2022-12-18T06:13:01;102648.13;;;2.80;100.00
42385;BME280;28042;43.986;22.860;2022-12-18T06:15:26;102646.47;;;2.77;100.00
42385;BME280;28042;43.986;22.860;2022-12-18T06:17:52;102663.50;;;2.78;100.00
42385;BME280;28042;43.986;22.860;2022-12-18T06:20:17;102654.25;;;2.82;100.00
42385;BME280;28042;43.986;22.860;2022-12-18T06:22:42;102671.19;;;2.84;100.00
42385;BME280;28042;43.986;22.860;2022-12-18T06:25:08;102672.16;;;2.83;100.00
42385;BME280;28042;43.986;22.860;2022-12-18T06:27:33;102678.19;;;2.87;100.00
42385;BME280;28042;43.986;22.860;2022-12-18T06:29:59;102686.00;;;2.91;100.00
42385;BME280;28042;43.986;22.860;2022-12-18T06:32:25;102687.53;;;2.95;100.00
42385;BME280;28042;43.986;22.860;2022-12-18T06:34:50;102689.34;;;2.95;100.00
42385;BME280;28042;43.986;22.860;2022-12-18T06:37:15;102695.31;;;3.00;100.00
42385;BME280;28042;43.986;22.860;2022-12-18T06:39:41;102698.88;;;3.00;100.00
42385;BME280;28042;43.986;22.860;2022-12-18T06:42:06;102706.75;;;3.03;100.00
42385;BME280;28042;43.986;22.860;2022-12-18T06:44:31;102714.34;;;3.11;100.00
42385;BME280;28042;43.986;22.860;2022-12-18T06:46:57;102709.19;;;3.08;100.00
42385;BME280;28042;43.986;22.860;2022-12-18T06:49:22;102717.84;;;3.13;100.00
42385;BME280;28042;43.986;22.860;2022-12-18T06:51:47;102707.50;;;3.20;100.00
42385;BME280;28042;43.986;22.860;2022-12-18T06:54:12;102714.84;;;3.18;100.00
42385;BME280;28042;43.986;22.860;2022-12-18T06:56:38;102686.16;;;3.02;99.94
42385;BME280;28042;43.986;22.860;2022-12-18T06:59:03;102716.16;;;3.25;99.45
42385;BME280;28042;43.986;22.860;2022-12-18T07:01:28;102725.22;;;3.24;98.94
42385;BME280;28042;43.986;22.860;2022-12-18T07:03:54;102734.06;;;3.26;99.41
42385;BME280;28042;43.986;22.860;2022-12-18T07:06:21;102734.84;;;3.28;98.70
42385;BME280;28042;43.986;22.860;2022-12-18T07:08:47;102730.13;;;3.31;97.59
42385;BME280;28042;43.986;22.860;2022-12-18T07:11:12;102742.53;;;3.34;96.92
42385;BME280;28042;43.986;22.860;2022-12-18T07:13:38;102741.66;;;3.33;96.42
42385;BME280;28042;43.986;22.860;2022-12-18T07:16:04;102749.44;;;3.38;95.43
42385;BME280;28042;43.986;22.860;2022-12-18T07:18:29;102739.63;;;3.37;94.74
42385;BME280;28042;43.986;22.860;2022-12-18T07:20:54;102745.38;;;3.45;94.21
42385;BME280;28042;43.986;22.860;2022-12-18T07:23:20;102751.53;;;3.47;93.83
42385;BME280;28042;43.986;22.860;2022-12-18T07:25:45;102751.25;;;3.52;93.44
42385;BME280;28042;43.986;22.860;2022-12-18T07:28:10;102753.94;;;3.52;92.62
42385;BME280;28042;43.986;22.860;2022-12-18T07:30:37;102761.94;;;3.53;93.26
42385;BME280;28042;43.986;22.860;2022-12-18T07:33:03;102756.88;;;3.61;92.12
42385;BME280;28042;43.986;22.860;2022-12-18T07:35:28;102764.78;;;3.64;91.18
42385;BME280;28042;43.986;22.860;2022-12-18T07:37:54;102766.81;;;3.61;88.70
42385;BME280;28042;43.986;22.860;2022-12-18T07:40:19;102777.00;;;3.70;89.35
42385;BME280;28042;43.986;22.860;2022-12-18T07:42:44;102772.47;;;3.71;88.68
42385;BME280;28042;43.986;22.860;2022-12-18T07:45:10;102773.78;;;3.78;89.02
42385;BME280;28042;43.986;22.860;2022-12-18T07:47:35;102776.50;;;3.78;88.83
42385;BME280;28042;43.986;22.860;2022-12-18T07:50:01;102775.31;;;3.82;88.50
42385;BME280;28042;43.986;22.860;2022-12-18T07:52:27;102779.22;;;3.90;88.52
42385;BME280;28042;43.986;22.860;2022-12-18T07:54:52;102783.56;;;3.93;87.84
42385;BME280;28042;43.986;22.860;2022-12-18T07:57:17;102783.56;;;3.93;87.50
42385;BME280;28042;43.986;22.860;2022-12-18T07:59:43;102795.53;;;3.89;86.60
42385;BME280;28042;43.986;22.860;2022-12-18T08:02:08;102799.78;;;3.93;86.69
42385;BME280;28042;43.986;22.860;2022-12-18T08:04:33;102799.03;;;4.04;86.92
42385;BME280;28042;43.986;22.860;2022-12-18T08:06:59;102798.06;;;4.05;85.75
42385;BME280;28042;43.986;22.860;2022-12-18T08:09:24;102803.56;;;4.03;85.27
42385;BME280;28042;43.986;22.860;2022-12-18T08:11:49;102804.44;;;4.04;85.95
42385;BME280;28042;43.986;22.860;2022-12-18T08:14:15;102809.28;;;3.98;84.66
42385;BME280;28042;43.986;22.860;2022-12-18T08:16:40;102808.41;;;3.98;85.82
42385;BME280;28042;43.986;22.860;2022-12-18T08:19:05;102818.25;;;3.99;86.41
42385;BME280;28042;43.986;22.860;2022-12-18T08:21:31;102808.63;;;3.95;84.52
42385;BME280;28042;43.986;22.860;2022-12-18T08:23:57;102802.59;;;3.91;84.47
42385;BME280;28042;43.986;22.860;2022-12-18T08:26:23;102809.03;;;3.89;84.42
42385;BME280;28042;43.986;22.860;2022-12-18T08:28:49;102803.78;;;4.00;83.82
42385;BME280;28042;43.986;22.860;2022-12-18T08:31:15;102808.75;;;4.06;82.08
42385;BME280;28042;43.986;22.860;2022-12-18T08:33:41;102815.88;;;4.07;81.94
42385;BME280;28042;43.986;22.860;2022-12-18T08:36:07;102811.28;;;4.09;82.07
42385;BME280;28042;43.986;22.860;2022-12-18T08:38:33;102808.94;;;4.17;82.55
42385;BME280;28042;43.986;22.860;2022-12-18T08:40:59;102810.84;;;4.15;81.44
42385;BME280;28042;43.986;22.860;2022-12-18T08:43:25;102810.19;;;4.12;80.32
42385;BME280;28042;43.986;22.860;2022-12-18T08:46:08;102812.38;;;4.19;81.08
42385;BME280;28042;43.986;22.860;2022-12-18T08:48:34;102814.75;;;4.24;80.23
42385;BME280;28042;43.986;22.860;2022-12-18T08:50:59;102808.06;;;4.30;80.96
42385;BME280;28042;43.986;22.860;2022-12-18T08:53:25;102789.91;;;4.32;79.19
42385;BME280;28042;43.986;22.860;2022-12-18T08:55:51;102793.59;;;4.31;78.21
42385;BME280;28042;43.986;22.860;2022-12-18T08:58:16;102800.72;;;4.32;78.62
42385;BME280;28042;43.986;22.860;2022-12-18T09:00:41;102805.25;;;4.31;76.60
42385;BME280;28042;43.986;22.860;2022-12-18T09:03:13;102810.78;;;4.30;74.31
42385;BME280;28042;43.986;22.860;2022-12-18T09:05:38;102807.22;;;4.42;73.64
42385;BME280;28042;43.986;22.860;2022-12-18T09:08:04;102807.66;;;4.48;74.13
42385;BME280;28042;43.986;22.860;2022-12-18T09:10:29;102805.81;;;4.49;71.92
42385;BME280;28042;43.986;22.860;2022-12-18T09:12:54;102805.28;;;4.44;70.53
42385;BME280;28042;43.986;22.860;2022-12-18T09:15:21;102799.91;;;4.44;71.57
42385;BME280;28042;43.986;22.860;2022-12-18T09:17:46;102800.75;;;4.44;71.67
42385;BME280;28042;43.986;22.860;2022-12-18T09:20:13;102805.28;;;4.44;71.41
42385;BME280;28042;43.986;22.860;2022-12-18T09:22:38;102808.41;;;4.38;71.82
42385;BME280;28042;43.986;22.860;2022-12-18T09:25:03;102803.13;;;4.49;72.80
42385;BME280;28042;43.986;22.860;2022-12-18T09:27:29;102799.25;;;4.53;71.97
42385;BME280;28042;43.986;22.860;2022-12-18T09:29:54;102783.91;;;4.53;71.46
42385;BME280;28042;43.986;22.860;2022-12-18T09:32:20;102799.66;;;4.60;70.87
42385;BME280;28042;43.986;22.860;2022-12-18T09:34:45;102797.53;;;4.65;72.52
42385;BME280;28042;43.986;22.860;2022-12-18T09:37:11;102810.91;;;4.66;71.45
42385;BME280;28042;43.986;22.860;2022-12-18T09:39:36;102812.66;;;4.80;71.03
42385;BME280;28042;43.986;22.860;2022-12-18T09:42:01;102801.19;;;4.76;68.67
42385;BME280;28042;43.986;22.860;2022-12-18T09:44:38;102811.91;;;4.78;69.44
42385;BME280;28042;43.986;22.860;2022-12-18T09:49:30;102807.03;;;4.70;68.92
42385;BME280;28042;43.986;22.860;2022-12-18T09:51:59;102794.28;;;4.72;69.47
42385;BME280;28042;43.986;22.860;2022-12-18T09:54:38;102800.78;;;4.70;69.81
42385;BME280;28042;43.986;22.860;2022-12-18T09:57:04;102783.25;;;4.75;71.16
42385;BME280;28042;43.986;22.860;2022-12-18T09:59:37;102789.50;;;4.76;68.85
42385;BME280;28042;43.986;22.860;2022-12-18T10:02:23;102784.53;;;4.82;68.22
42385;BME280;28042;43.986;22.860;2022-12-18T10:05:10;102783.25;;;4.88;64.57
42385;BME280;28042;43.986;22.860;2022-12-18T10:12:37;102781.38;;;5.14;60.99
42385;BME280;28042;43.986;22.860;2022-12-18T10:15:19;102774.97;;;5.15;60.33
42385;BME280;28042;43.986;22.860;2022-12-18T10:20:46;102780.16;;;5.18;61.48
42385;BME280;28042;43.986;22.860;2022-12-18T10:23:19;102770.84;;;5.22;60.96
42385;BME280;28042;43.986;22.860;2022-12-18T10:28:15;102793.75;;;5.29;62.58
42385;BME280;28042;43.986;22.860;2022-12-18T10:30:41;102793.75;;;5.29;61.81
42385;BME280;28042;43.986;22.860;2022-12-18T10:33:20;102795.03;;;5.36;63.02
42385;BME280;28042;43.986;22.860;2022-12-18T10:35:46;102799.47;;;5.37;63.98
42385;BME280;28042;43.986;22.860;2022-12-18T10:41:03;102803.09;;;5.62;63.13
42385;BME280;28042;43.986;22.860;2022-12-18T10:45:59;102801.78;;;5.31;62.24
42385;BME280;28042;43.986;22.860;2022-12-18T10:48:25;102800.63;;;5.22;65.04
42385;BME280;28042;43.986;22.860;2022-12-18T10:50:50;102799.22;;;5.17;65.95
42385;BME280;28042;43.986;22.860;2022-12-18T10:53:27;102811.56;;;5.08;64.98
42385;BME280;28042;43.986;22.860;2022-12-18T10:55:53;102816.53;;;5.01;64.75
42385;BME280;28042;43.986;22.860;2022-12-18T10:58:24;102821.75;;;5.04;65.16
42385;BME280;28042;43.986;22.860;2022-12-18T11:03:45;102828.22;;;5.02;65.25
42385;BME280;28042;43.986;22.860;2022-12-18T11:08:36;102825.41;;;5.03;65.87
42385;BME280;28042;43.986;22.860;2022-12-18T11:11:02;102833.84;;;5.11;66.23
42385;BME280;28042;43.986;22.860;2022-12-18T11:13:28;102822.34;;;5.33;65.45
42385;BME280;28042;43.986;22.860;2022-12-18T11:15:54;102824.44;;;5.54;62.66
42385;BME280;28042;43.986;22.860;2022-12-18T11:18:22;102826.56;;;5.74;61.29
42385;BME280;28042;43.986;22.860;2022-12-18T11:20:50;102832.38;;;5.93;59.73
42385;BME280;28042;43.986;22.860;2022-12-18T11:23:16;102826.38;;;6.01;57.59
42385;BME280;28042;43.986;22.860;2022-12-18T11:25:50;102819.03;;;6.14;57.74
42385;BME280;28042;43.986;22.860;2022-12-18T11:31:08;102826.16;;;6.39;56.03
42385;BME280;28042;43.986;22.860;2022-12-18T11:33:34;102838.50;;;6.43;55.34
42385;BME280;28042;43.986;22.860;2022-12-18T11:36:01;102823.84;;;6.46;55.14
42385;BME280;28042;43.986;22.860;2022-12-18T11:38:31;102822.72;;;6.48;54.40
42385;BME280;28042;43.986;22.860;2022-12-18T11:43:38;102826.41;;;6.47;53.74
42385;BME280;28042;43.986;22.860;2022-12-18T11:46:08;102822.00;;;6.58;53.81
42385;BME280;28042;43.986;22.860;2022-12-18T11:48:37;102825.22;;;6.51;52.77
42385;BME280;28042;43.986;22.860;2022-12-18T11:51:09;102832.38;;;6.64;53.02
42385;BME280;28042;43.986;22.860;2022-12-18T11:53:36;102840.00;;;6.59;52.64
42385;BME280;28042;43.986;22.860;2022-12-18T11:58:50;102831.81;;;6.83;53.20
42385;BME280;28042;43.986;22.860;2022-12-18T12:14:38;102840.06;;;6.81;52.52
42385;BME280;28042;43.986;22.860;2022-12-18T12:23:01;102836.84;;;6.76;53.68
42385;BME280;28042;43.986;22.860;2022-12-18T12:38:41;102865.91;;;6.04;59.05
42385;BME280;28042;43.986;22.860;2022-12-18T12:41:12;102871.56;;;6.01;58.75
42385;BME280;28042;43.986;22.860;2022-12-18T12:43:58;102878.16;;;5.97;59.64
42385;BME280;28042;43.986;22.860;2022-12-18T12:46:25;102880.91;;;5.84;59.75
42385;BME280;28042;43.986;22.860;2022-12-18T12:49:03;102883.13;;;5.66;59.97
42385;BME280;28042;43.986;22.860;2022-12-18T12:53:59;102879.25;;;5.45;62.12
42385;BME280;28042;43.986;22.860;2022-12-18T12:56:29;102881.53;;;5.38;62.32
42385;BME280;28042;43.986;22.860;2022-12-18T13:01:54;102885.75;;;5.42;62.10
42385;BME280;28042;43.986;22.860;2022-12-18T13:04:39;102903.28;;;5.36;62.48
42385;BME280;28042;43.986;22.860;2022-12-18T13:09:35;102900.72;;;5.09;64.09
42385;BME280;28042;43.986;22.860;2022-12-18T13:12:20;102911.72;;;4.94;64.39
42385;BME280;28042;43.986;22.860;2022-12-18T13:15:21;102914.72;;;4.76;64.34
42385;BME280;28042;43.986;22.860;2022-12-18T13:17:48;102910.31;;;4.75;64.28
42385;BME280;28042;43.986;22.860;2022-12-18T13:20:14;102907.16;;;4.69;64.03
42385;BME280;28042;43.986;22.860;2022-12-18T13:22:42;102921.75;;;4.66;64.35
42385;BME280;28042;43.986;22.860;2022-12-18T13:27:59;102926.06;;;4.56;66.15
42385;BME280;28042;43.986;22.860;2022-12-18T13:45:43;102955.50;;;3.92;69.17
42385;BME280;28042;43.986;22.860;2022-12-18T13:48:22;102948.97;;;3.82;69.07
42385;BME280;28042;43.986;22.860;2022-12-18T13:50:49;102957.94;;;3.68;67.88
42385;BME280;28042;43.986;22.860;2022-12-18T13:53:20;102952.16;;;3.60;68.69
42385;BME280;28042;43.986;22.860;2022-12-18T13:55:46;102944.63;;;3.51;69.67
42385;BME280;28042;43.986;22.860;2022-12-18T13:58:12;102957.38;;;3.49;71.26
42385;BME280;28042;43.986;22.860;2022-12-18T14:00:41;102956.22;;;3.39;71.69
42385;BME280;28042;43.986;22.860;2022-12-18T14:03:16;102957.94;;;3.40;73.13
42385;BME280;28042;43.986;22.860;2022-12-18T14:05:42;102965.81;;;3.29;73.36
42385;BME280;28042;43.986;22.860;2022-12-18T14:08:15;102968.09;;;3.21;74.49
42385;BME280;28042;43.986;22.860;2022-12-18T14:10:45;102969.19;;;3.18;74.62
42385;BME280;28042;43.986;22.860;2022-12-18T14:13:15;102975.81;;;3.12;75.82
42385;BME280;28042;43.986;22.860;2022-12-18T14:15:41;102987.94;;;3.05;75.48
42385;BME280;28042;43.986;22.860;2022-12-18T14:20:49;102982.50;;;2.91;75.30
42385;BME280;28042;43.986;22.860;2022-12-18T14:25:58;103002.47;;;2.73;75.88
42385;BME280;28042;43.986;22.860;2022-12-18T14:28:24;103000.13;;;2.67;75.78
42385;BME280;28042;43.986;22.860;2022-12-18T14:30:51;103006.91;;;2.58;76.83
42385;BME280;28042;43.986;22.860;2022-12-18T14:33:20;103003.97;;;2.47;76.50
42385;BME280;28042;43.986;22.860;2022-12-18T14:38:19;102998.25;;;2.37;77.02
42385;BME280;28042;43.986;22.860;2022-12-18T14:40:45;103006.69;;;2.31;76.67
42385;BME280;28042;43.986;22.860;2022-12-18T14:43:11;103008.16;;;2.21;78.02
42385;BME280;28042;43.986;22.860;2022-12-18T14:45:38;103015.63;;;2.16;78.45
42385;BME280;28042;43.986;22.860;2022-12-18T14:48:06;103019.69;;;2.07;78.36
42385;BME280;28042;43.986;22.860;2022-12-18T14:50:32;103031.69;;;2.02;78.72
42385;BME280;28042;43.986;22.860;2022-12-18T14:52:57;103023.75;;;1.98;79.32
42385;BME280;28042;43.986;22.860;2022-12-18T14:55:23;103036.53;;;1.95;80.32
42385;BME280;28042;43.986;22.860;2022-12-18T14:57:52;103033.41;;;1.87;81.56
42385;BME280;28042;43.986;22.860;2022-12-18T15:00:20;103040.16;;;1.78;82.56